createdAt,value
2023-06-09T00:00:31.343Z,65.29297
2023-06-09T00:05:33.395Z,65.55957
2023-06-09T00:10:31.793Z,65.87207
2023-06-09T00:15:31.715Z,65.93945
2023-06-09T00:20:34.476Z,65.80859
2023-06-09T00:25:31.541Z,66.17285
2023-06-09T00:30:39.041Z,66.12402
2023-06-09T00:35:32.015Z,66.04102
2023-06-09T00:40:31.499Z,66.33301
2023-06-09T00:45:31.478Z,66.1748
2023-06-09T00:50:31.440Z,66.02734
2023-06-09T00:55:31.634Z,65.70801
2023-06-09T01:00:32.898Z,65.54102
2023-06-09T01:05:31.544Z,65.28711
2023-06-09T01:10:36.671Z,65.0957
2023-06-09T01:15:32.779Z,64.87305
2023-06-09T01:20:32.907Z,65.05078
2023-06-09T01:25:36.648Z,64.63086
2023-06-09T01:30:33.840Z,64.91699
2023-06-09T01:35:32.483Z,64.92578
2023-06-09T01:40:31.550Z,65.36523
2023-06-09T01:45:31.492Z,66.11914
2023-06-09T01:50:36.683Z,66.1709
2023-06-09T01:55:33.457Z,66.00977
2023-06-09T02:00:31.551Z,66.1543
2023-06-09T02:05:32.216Z,66.70508
2023-06-09T02:10:31.616Z,66.93945
2023-06-09T02:15:31.505Z,67.61426
2023-06-09T02:20:31.580Z,68.2998
2023-06-09T02:25:33.254Z,68.8418
2023-06-09T02:30:31.514Z,69.47168
2023-06-09T02:35:31.650Z,69.74609
2023-06-09T02:40:33.780Z,70.62598
2023-06-09T02:45:31.532Z,70.8584
2023-06-09T02:50:31.567Z,71.99902
2023-06-09T02:55:33.430Z,72.38867
2023-06-09T03:00:34.646Z,72.60156
2023-06-09T03:05:31.533Z,73.04004
2023-06-09T03:10:32.125Z,73.54492
2023-06-09T03:15:32.044Z,73.77539
2023-06-09T03:20:33.817Z,73.98535
2023-06-09T03:25:32.122Z,74.21973
2023-06-09T03:30:31.666Z,74.4209
2023-06-09T03:35:31.573Z,74.85254
2023-06-09T03:40:31.532Z,75.13379
2023-06-09T03:45:31.518Z,75.59668
2023-06-09T03:50:31.598Z,75.51074
2023-06-09T03:55:32.398Z,75.78516
2023-06-09T04:00:31.512Z,75.82715
2023-06-09T04:05:31.559Z,75.83301
2023-06-09T04:10:31.542Z,75.80859
2023-06-09T04:15:32.475Z,75.87598
2023-06-09T04:20:31.586Z,75.8125
2023-06-09T04:25:31.622Z,75.7002
2023-06-09T04:30:31.670Z,75.8916
2023-06-09T04:35:31.605Z,75.61621
2023-06-09T04:40:31.880Z,75.62305
2023-06-09T04:45:35.460Z,75.32422
2023-06-09T04:50:34.018Z,75.14746
2023-06-09T04:55:31.662Z,74.41406
2023-06-09T05:00:32.285Z,71.23828
2023-06-09T05:05:31.781Z,66.7373
2023-06-09T05:10:31.713Z,62.29395
2023-06-09T05:15:32.006Z,60.72949
2023-06-09T05:20:31.683Z,58.45117
2023-06-09T05:25:31.717Z,55.95996
2023-06-09T05:30:31.676Z,56.52051
2023-06-09T05:35:31.705Z,53.6416
2023-06-09T05:40:31.733Z,54.2041
2023-06-09T05:45:31.766Z,52.77637
2023-06-09T05:50:31.682Z,50.77344
2023-06-09T05:55:32.133Z,49.23535
2023-06-09T06:00:31.875Z,48.79395
2023-06-09T06:05:31.745Z,48.38477
2023-06-09T06:10:32.141Z,47.24707
2023-06-09T06:15:31.754Z,46.84473
2023-06-09T06:20:32.362Z,46.0127
2023-06-09T06:25:31.690Z,45.27734
2023-06-09T06:30:31.965Z,45.15527
2023-06-09T06:35:34.289Z,44.04785
2023-06-09T06:40:32.088Z,41.85059
2023-06-09T06:45:31.690Z,41.81738
2023-06-09T06:50:33.660Z,43.62402
2023-06-09T06:55:34.012Z,39.77832
2023-06-09T07:00:31.827Z,39.44922
2023-06-09T07:05:31.762Z,39.54688
2023-06-09T07:10:32.190Z,39.17188
2023-06-09T07:15:31.744Z,37.98926
2023-06-09T07:20:31.835Z,36.63867
2023-06-09T07:25:32.400Z,36.7373
2023-06-09T07:30:32.337Z,37.18457
2023-06-09T07:35:34.049Z,35.78223
2023-06-09T07:40:34.153Z,33.92188
2023-06-09T07:45:34.556Z,34.66992
2023-06-09T07:50:43.600Z,35.05176
2023-06-09T07:55:36.833Z,32.91309
2023-06-09T08:00:38.451Z,31.11914
2023-06-09T08:05:37.395Z,31.65723
2023-06-09T08:10:37.970Z,31.13574
2023-06-09T08:15:38.712Z,31.38184
2023-06-09T08:20:40.326Z,30.9502
2023-06-09T08:25:42.340Z,30.92383
2023-06-09T08:30:41.660Z,30.10547
2023-06-09T08:35:33.792Z,29.43262
2023-06-09T08:40:31.865Z,29.31836
2023-06-09T08:45:32.026Z,29.21387
2023-06-09T08:50:33.395Z,28.75781
2023-06-09T08:55:32.430Z,27.52246
2023-06-09T09:00:32.768Z,27.85059
2023-06-09T09:05:31.865Z,28.27734
2023-06-09T09:10:32.667Z,25.8457
2023-06-09T09:15:31.955Z,26.86523
2023-06-09T09:20:42.934Z,26.50684
2023-06-09T09:25:32.629Z,26.03516
2023-06-09T09:30:41.966Z,26.33789
2023-06-09T09:35:33.270Z,25.78809
2023-06-09T09:40:32.031Z,25.33691
2023-06-09T09:45:38.788Z,25.08594
2023-06-09T09:50:31.976Z,25.72559
2023-06-09T09:55:31.973Z,24.52441
2023-06-09T10:00:32.193Z,25.03027
2023-06-09T10:05:34.291Z,24.35645
2023-06-09T10:10:32.185Z,24.42773
2023-06-09T10:15:31.952Z,25.03027
2023-06-09T10:20:32.114Z,23.75098
2023-06-09T10:25:32.078Z,25.01758
2023-06-09T10:30:32.144Z,24.20703
2023-06-09T10:35:33.894Z,23.64453
2023-06-09T10:40:34.126Z,23.74512
2023-06-09T10:45:41.937Z,24.76953
2023-06-09T10:50:33.170Z,23.82715
2023-06-09T10:55:32.710Z,24.35547
2023-06-09T11:00:42.008Z,23.08594
2023-06-09T11:05:42.008Z,23.21289
2023-06-09T11:10:32.535Z,22.80859
2023-06-09T11:15:41.982Z,23.08398
2023-06-09T11:20:34.877Z,23.74316
2023-06-09T11:25:45.260Z,23.1709
2023-06-09T11:30:33.190Z,23.11133
2023-06-09T11:35:49.400Z,23.35449
2023-06-09T11:40:33.085Z,22.49023
2023-06-09T11:45:33.491Z,23.28125
2023-06-09T11:50:40.866Z,23.77734
2023-06-09T11:55:33.281Z,22.78516
2023-06-09T12:00:33.417Z,21.72461
2023-06-09T12:05:32.298Z,23.22949
2023-06-09T12:10:32.481Z,23.30273
2023-06-09T12:15:32.594Z,24.34766
2023-06-09T12:20:33.157Z,24.18359
2023-06-09T12:25:33.210Z,23.48047
2023-06-09T12:30:42.325Z,24.46484
2023-06-09T12:35:32.337Z,24.03809
2023-06-09T12:40:32.260Z,23.32324
2023-06-09T12:45:36.337Z,22.4043
2023-06-09T12:50:32.156Z,21.01758
2023-06-09T12:55:32.183Z,21.53809
2023-06-09T13:00:32.296Z,22.21191
2023-06-09T13:05:32.325Z,22.31055
2023-06-09T13:10:32.686Z,24.0166
2023-06-09T13:15:32.156Z,24.58594
2023-06-09T13:20:32.256Z,23.66113
2023-06-09T13:25:32.384Z,24.05859
2023-06-09T13:30:32.353Z,24.21387
2023-06-09T13:35:32.159Z,24.14258
2023-06-09T13:40:32.440Z,23.54004
2023-06-09T13:45:32.191Z,24.01563
2023-06-09T13:50:32.217Z,22.89941
2023-06-09T13:55:32.262Z,23.9502
2023-06-09T14:00:32.579Z,23.52051
2023-06-09T14:05:32.228Z,25.07617
2023-06-09T14:10:32.305Z,23.73438
2023-06-09T14:15:32.195Z,24.68164
2023-06-09T14:20:32.539Z,24.47754
2023-06-09T14:25:32.224Z,24.02539
2023-06-09T14:30:32.573Z,25.96289
2023-06-09T14:35:32.435Z,25.60156
2023-06-09T14:40:36.412Z,25.75781
2023-06-09T14:45:32.947Z,24.46191
2023-06-09T14:50:34.213Z,23.9668
2023-06-09T14:55:33.868Z,24.06348
2023-06-09T15:00:32.833Z,24.25
2023-06-09T15:05:33.208Z,25.22949
2023-06-09T15:10:33.163Z,26.22852
2023-06-09T15:15:32.410Z,26.35645
2023-06-09T15:20:33.352Z,25.69336
2023-06-09T15:25:34.555Z,27.33691
2023-06-09T15:30:34.164Z,27.26758
2023-06-09T15:35:34.999Z,25.19043
2023-06-09T15:40:32.687Z,26.6582
2023-06-09T15:45:32.318Z,27.25879
2023-06-09T15:50:32.324Z,26.67188
2023-06-09T15:55:33.609Z,25.48535
2023-06-09T16:00:32.341Z,25.3418
2023-06-09T16:05:34.698Z,27.41309
2023-06-09T16:10:32.364Z,29.70215
2023-06-09T16:15:34.648Z,30.67578
2023-06-09T16:20:33.481Z,30.10156
2023-06-09T16:25:32.929Z,28.08496
2023-06-09T16:30:36.957Z,27.29785
2023-06-09T16:35:32.441Z,26.72852
2023-06-09T16:40:32.370Z,27.36426
2023-06-09T16:45:32.679Z,27.16602
2023-06-09T16:50:32.395Z,26.82617
2023-06-09T16:55:32.380Z,26.5752
2023-06-09T17:00:32.436Z,27.00977
2023-06-09T17:05:32.414Z,26.99902
2023-06-09T17:10:32.671Z,27.02051
2023-06-09T17:15:32.534Z,27.0293
2023-06-09T17:20:33.754Z,27.4668
2023-06-09T17:25:32.434Z,27.35449
2023-06-09T17:30:32.711Z,27.09082
2023-06-09T17:35:32.445Z,26.9248
2023-06-09T17:40:32.486Z,27.43164
2023-06-09T17:45:33.009Z,27.23926
2023-06-09T17:50:32.793Z,27.31445
2023-06-09T17:55:32.466Z,28.02539
2023-06-09T18:00:32.472Z,29.77148
2023-06-09T18:05:32.463Z,31.11328
2023-06-09T18:10:32.640Z,31.56836
2023-06-09T18:15:32.590Z,32.52148
2023-06-09T18:20:32.593Z,31.90137
2023-06-09T18:25:32.767Z,32.81934
2023-06-09T18:30:32.513Z,32.7207
2023-06-09T18:35:32.488Z,33.13477
2023-06-09T18:40:32.530Z,33.17773
2023-06-09T18:45:32.577Z,33.26855
2023-06-09T18:50:33.040Z,33.59277
2023-06-09T18:55:32.542Z,33.94336
2023-06-09T19:00:32.605Z,34.55273
2023-06-09T19:05:32.645Z,34.74805
2023-06-09T19:10:33.037Z,35.91699
2023-06-09T19:15:32.531Z,36.3877
2023-06-09T19:20:32.605Z,36.03125
2023-06-09T19:25:32.685Z,36.05469
2023-06-09T19:30:32.685Z,36.23438
2023-06-09T19:35:32.560Z,36.60938
2023-06-09T19:40:32.660Z,37.5332
2023-06-09T19:45:32.682Z,38.12988
2023-06-09T19:50:34.812Z,39.36816
2023-06-09T19:55:32.885Z,39.89063
2023-06-09T20:00:32.603Z,40.56738
2023-06-09T20:05:32.636Z,41.26563
2023-06-09T20:10:32.658Z,42.27832
2023-06-09T20:15:32.625Z,42.82617
2023-06-09T20:20:33.455Z,43.20605
2023-06-09T20:25:32.593Z,43.96484
2023-06-09T20:30:32.638Z,45.0293
2023-06-09T20:35:32.651Z,45.32031
2023-06-09T20:40:32.713Z,46.4209
2023-06-09T20:45:33.776Z,46.97949
2023-06-09T20:50:33.455Z,47.92578
2023-06-09T20:55:32.644Z,48.90332
2023-06-09T21:00:32.624Z,49.78711
2023-06-09T21:05:32.894Z,50.1377
2023-06-09T21:10:32.738Z,50.97266
2023-06-09T21:15:32.717Z,51.21777
2023-06-09T21:20:33.684Z,51.59961
2023-06-09T21:25:33.348Z,52.15625
2023-06-09T21:30:33.507Z,52.96484
2023-06-09T21:35:32.729Z,53.13184
2023-06-09T21:40:32.731Z,53.81738
2023-06-09T21:45:32.723Z,53.97754
2023-06-09T21:50:32.766Z,53.78223
2023-06-09T21:55:32.709Z,53.30176
2023-06-09T22:00:33.717Z,52.13574
2023-06-09T22:05:32.725Z,51.6377
2023-06-09T22:10:32.764Z,51.23242
2023-06-09T22:15:32.730Z,50.69727
2023-06-09T22:20:34.162Z,50.28125
2023-06-09T22:25:34.032Z,50.24707
2023-06-09T22:30:32.795Z,50.44629
2023-06-09T22:35:32.746Z,50.58398
2023-06-09T22:40:32.751Z,50.47363
2023-06-09T22:45:32.793Z,50.74609
2023-06-09T22:50:32.875Z,50.97559
2023-06-09T22:55:32.849Z,50.89746
2023-06-09T23:00:32.800Z,49.86816
2023-06-09T23:05:38.944Z,49.5166
2023-06-09T23:10:33.202Z,48.97852
2023-06-09T23:15:33.092Z,48.47168
2023-06-09T23:20:33.146Z,48.46582
2023-06-09T23:25:34.522Z,47.54883
2023-06-09T23:30:32.804Z,47.35156
2023-06-09T23:35:35.003Z,47.25098
2023-06-09T23:40:32.884Z,47.36328
2023-06-09T23:45:32.855Z,47.63867
2023-06-09T23:50:33.665Z,47.57324
2023-06-09T23:55:34.015Z,47.8877
